createdAt,value
2019-01-12T00:01:40.118Z,13.43
2019-01-12T00:04:09.445Z,9.63
2019-01-12T00:06:38.584Z,10.83
2019-01-12T00:09:09.091Z,9.77
2019-01-12T00:11:38.268Z,11.60
2019-01-12T00:14:07.412Z,10.03
2019-01-12T00:16:36.583Z,12.33
2019-01-12T00:19:05.716Z,14.93
2019-01-12T00:21:35.332Z,11.93
2019-01-12T00:24:04.554Z,13.07
2019-01-12T00:26:33.700Z,13.40
2019-01-12T00:29:02.876Z,10.33
2019-01-12T00:31:32.013Z,9.63
2019-01-12T00:34:01.254Z,13.00
2019-01-12T00:36:30.826Z,9.87
2019-01-12T00:39:00.046Z,12.10
2019-01-12T00:41:29.189Z,9.87
2019-01-12T00:43:58.714Z,12.57
2019-01-12T00:46:27.962Z,10.60
2019-01-12T00:48:57.113Z,8.73
2019-01-12T00:51:26.725Z,10.57
2019-01-12T00:53:55.860Z,8.73
2019-01-12T00:56:24.983Z,10.73
2019-01-12T00:58:54.205Z,7.07
2019-01-12T01:01:23.381Z,10.00
2019-01-12T01:03:52.790Z,12.60
2019-01-12T01:06:21.979Z,9.40
2019-01-12T01:08:51.139Z,9.07
2019-01-12T01:11:20.278Z,9.57
2019-01-12T01:13:49.432Z,9.30
2019-01-12T01:16:18.575Z,10.63
2019-01-12T01:18:47.781Z,11.97
2019-01-12T01:21:16.932Z,17.73
2019-01-12T01:23:46.112Z,11.53
2019-01-12T01:26:15.306Z,8.07
2019-01-12T01:28:44.395Z,6.50
2019-01-12T01:31:13.601Z,9.03
2019-01-12T01:33:42.768Z,6.57
2019-01-12T01:36:11.909Z,7.67
2019-01-12T01:38:41.176Z,6.57
2019-01-12T01:41:10.364Z,5.03
2019-01-12T01:43:39.556Z,5.97
2019-01-12T01:46:08.695Z,7.70
2019-01-12T01:48:37.823Z,7.63
2019-01-12T01:51:07.036Z,6.27
2019-01-12T01:53:36.187Z,6.37
2019-01-12T01:56:07.390Z,6.83
2019-01-12T01:58:36.638Z,5.27
2019-01-12T02:01:05.881Z,7.03
2019-01-12T02:03:35.050Z,7.07
2019-01-12T02:06:04.215Z,4.93
2019-01-12T02:08:33.449Z,7.60
2019-01-12T02:11:02.645Z,9.97
2019-01-12T02:13:31.763Z,7.40
2019-01-12T02:16:02.183Z,6.30
2019-01-12T02:18:31.317Z,7.87
2019-01-12T02:21:00.595Z,11.00
2019-01-12T02:23:29.765Z,11.23
2019-01-12T02:25:58.976Z,8.93
2019-01-12T02:28:28.229Z,9.17
2019-01-12T02:30:57.361Z,9.60
2019-01-12T02:33:26.523Z,13.40
2019-01-12T02:35:55.691Z,10.60
2019-01-12T02:38:24.977Z,11.17
2019-01-12T02:40:54.106Z,8.17
2019-01-12T02:43:23.289Z,12.00
2019-01-12T02:45:52.447Z,15.83
2019-01-12T02:48:21.582Z,12.27
2019-01-12T02:50:50.791Z,15.77
2019-01-12T02:53:20.011Z,14.03
2019-01-12T02:55:49.166Z,13.37
2019-01-12T02:58:18.496Z,11.50
2019-01-12T03:00:47.680Z,10.47
2019-01-12T03:03:16.835Z,9.97
2019-01-12T03:05:46.054Z,13.10
2019-01-12T03:08:15.391Z,8.00
2019-01-12T03:10:44.530Z,6.53
2019-01-12T03:13:13.818Z,7.03
2019-01-12T03:15:43.007Z,12.93
2019-01-12T03:18:12.144Z,7.07
2019-01-12T03:20:41.313Z,7.93
2019-01-12T03:23:10.544Z,8.93
2019-01-12T03:25:40.004Z,7.70
2019-01-12T03:28:09.117Z,8.77
2019-01-12T03:30:38.260Z,8.40
2019-01-12T03:33:07.466Z,7.27
2019-01-12T03:35:36.688Z,7.47
2019-01-12T03:38:05.832Z,8.63
2019-01-12T03:40:35.215Z,7.67
2019-01-12T03:43:04.382Z,7.53
2019-01-12T03:45:33.639Z,6.60
2019-01-12T03:48:02.760Z,9.53
2019-01-12T03:50:32.105Z,6.20
2019-01-12T03:53:01.356Z,5.43
2019-01-12T03:55:30.987Z,8.63
2019-01-12T03:58:00.181Z,7.77
2019-01-12T04:00:29.453Z,8.20
2019-01-12T04:02:58.750Z,6.53
2019-01-12T04:05:27.901Z,4.33
2019-01-12T04:07:57.011Z,5.43
2019-01-12T04:10:26.317Z,7.67
2019-01-12T04:12:55.773Z,6.73
2019-01-12T04:15:24.939Z,9.33
2019-01-12T04:17:54.083Z,7.07
2019-01-12T04:20:23.344Z,6.40
2019-01-12T04:22:52.535Z,8.20
2019-01-12T04:25:21.859Z,7.83
2019-01-12T04:27:50.996Z,8.90
2019-01-12T04:30:21.944Z,11.43
2019-01-12T04:32:51.101Z,10.47
2019-01-12T04:35:20.409Z,11.47
2019-01-12T04:37:49.503Z,12.40
2019-01-12T04:40:19.781Z,9.17
2019-01-12T04:42:48.934Z,11.83
2019-01-12T04:45:18.397Z,11.50
2019-01-12T04:47:47.529Z,11.47
2019-01-12T04:50:20.511Z,6.63
2019-01-12T04:52:49.889Z,7.60
2019-01-12T04:55:19.023Z,6.87
2019-01-12T04:57:48.167Z,5.20
2019-01-12T05:00:22.049Z,8.90
2019-01-12T05:02:51.206Z,7.97
2019-01-12T05:05:20.341Z,9.70
2019-01-12T05:07:49.522Z,7.23
2019-01-12T05:10:18.709Z,6.67
2019-01-12T05:12:47.855Z,7.30
2019-01-12T05:15:17.114Z,7.13
2019-01-12T05:17:46.303Z,9.67
2019-01-12T05:20:20.361Z,6.77
2019-01-12T05:22:49.520Z,8.30
2019-01-12T05:25:18.742Z,5.93
2019-01-12T05:27:47.882Z,9.30
2019-01-12T05:30:26.320Z,6.60
2019-01-12T05:32:55.454Z,8.40
2019-01-12T05:35:24.981Z,6.43
2019-01-12T05:37:54.204Z,7.23
2019-01-12T05:40:23.436Z,8.27
2019-01-12T05:42:52.875Z,6.43
2019-01-12T05:45:22.041Z,7.33
2019-01-12T05:47:51.177Z,8.33
2019-01-12T05:50:20.582Z,10.37
2019-01-12T05:52:49.744Z,8.20
2019-01-12T05:55:19.589Z,9.83
2019-01-12T05:57:48.729Z,12.93
2019-01-12T06:00:22.247Z,10.20
2019-01-12T06:02:51.376Z,11.37
2019-01-12T06:05:20.817Z,8.03
2019-01-12T06:07:50.003Z,8.73
2019-01-12T06:10:19.568Z,11.53
2019-01-12T06:12:48.743Z,8.80
2019-01-12T06:15:18.571Z,10.07
2019-01-12T06:17:47.738Z,13.13
2019-01-12T06:20:20.400Z,16.53
2019-01-12T06:22:49.673Z,12.47
2019-01-12T06:25:18.842Z,13.80
2019-01-12T06:27:48.246Z,12.47
2019-01-12T06:30:22.150Z,13.40
2019-01-12T06:32:51.291Z,14.90
2019-01-12T06:35:20.425Z,10.13
2019-01-12T06:37:49.596Z,15.43
2019-01-12T06:40:19.693Z,16.40
2019-01-12T06:42:49.313Z,15.03
2019-01-12T06:45:19.200Z,12.90
2019-01-12T06:47:48.359Z,14.53
2019-01-12T06:50:20.866Z,15.93
2019-01-12T06:52:50.207Z,19.00
2019-01-12T06:55:19.450Z,16.40
2019-01-12T06:57:48.600Z,14.70
2019-01-12T07:00:22.429Z,14.80
2019-01-12T07:02:51.565Z,18.93
2019-01-12T07:05:20.709Z,16.90
2019-01-12T07:07:49.884Z,19.53
2019-01-12T07:10:21.224Z,18.07
2019-01-12T07:12:50.376Z,20.07
2019-01-12T07:15:19.544Z,18.33
2019-01-12T07:17:48.693Z,21.60
2019-01-12T07:20:18.477Z,24.70
2019-01-12T07:22:47.677Z,19.90
2019-01-12T07:25:17.308Z,20.10
2019-01-12T07:27:46.595Z,20.33
2019-01-12T07:30:22.530Z,22.93
2019-01-12T07:32:51.757Z,21.40
2019-01-12T07:35:21.263Z,19.63
2019-01-12T07:37:50.556Z,24.10
2019-01-12T07:40:19.671Z,21.97
2019-01-12T07:42:49.162Z,20.23
2019-01-12T07:45:18.297Z,17.30
2019-01-12T07:47:47.457Z,23.43
2019-01-12T07:50:16.907Z,20.83
2019-01-12T07:52:46.150Z,20.10
2019-01-12T07:55:15.347Z,22.73
2019-01-12T07:57:44.628Z,17.27
2019-01-12T08:00:24.198Z,20.43
2019-01-12T08:02:53.431Z,19.20
2019-01-12T08:05:23.124Z,22.13
2019-01-12T08:07:52.416Z,22.23
2019-01-12T08:10:26.974Z,23.87
2019-01-12T08:12:56.395Z,22.37
2019-01-12T08:15:25.630Z,21.13
2019-01-12T08:17:55.200Z,21.17
2019-01-12T08:20:24.353Z,21.00
2019-01-12T08:22:53.830Z,20.90
2019-01-12T08:25:23.136Z,21.00
2019-01-12T08:27:52.276Z,16.03
2019-01-12T08:30:23.265Z,19.97
2019-01-12T08:32:52.391Z,24.07
2019-01-12T08:35:21.546Z,20.70
2019-01-12T08:37:50.711Z,18.03
2019-01-12T08:40:19.882Z,22.60
2019-01-12T08:42:49.011Z,25.00
2019-01-12T08:45:18.537Z,21.43
2019-01-12T08:47:47.667Z,26.17
2019-01-12T08:50:21.051Z,23.23
2019-01-12T08:52:50.254Z,24.40
2019-01-12T08:55:19.535Z,23.03
2019-01-12T08:57:48.884Z,24.20
2019-01-12T09:00:22.247Z,26.00
2019-01-12T09:02:51.526Z,24.83
2019-01-12T09:05:21.691Z,31.43
2019-01-12T09:07:50.825Z,30.37
2019-01-12T09:10:21.772Z,29.03
2019-01-12T09:12:51.120Z,26.00
2019-01-12T09:15:20.756Z,27.07
2019-01-12T09:17:50.061Z,26.67
2019-01-12T09:20:20.537Z,32.80
2019-01-12T09:22:49.743Z,22.00
2019-01-12T09:25:18.958Z,25.60
2019-01-12T09:27:48.096Z,21.43
2019-01-12T09:30:23.898Z,31.03
2019-01-12T09:32:53.465Z,29.33
2019-01-12T09:35:22.604Z,28.37
2019-01-12T09:37:51.782Z,31.77
2019-01-12T09:40:24.366Z,31.93
2019-01-12T09:42:53.515Z,39.03
2019-01-12T09:45:23.122Z,32.37
2019-01-12T09:47:52.723Z,29.87
2019-01-12T09:50:23.149Z,34.60
2019-01-12T09:52:52.464Z,33.53
2019-01-12T09:55:21.619Z,33.47
2019-01-12T09:57:50.761Z,32.20
2019-01-12T10:00:28.921Z,33.60
2019-01-12T10:02:58.131Z,37.03
2019-01-12T10:05:27.325Z,31.80
2019-01-12T10:07:56.541Z,27.30
2019-01-12T10:10:25.795Z,32.63
2019-01-12T10:12:55.076Z,25.73
2019-01-12T10:15:24.205Z,28.63
2019-01-12T10:17:53.347Z,31.83
2019-01-12T10:20:22.638Z,30.90
2019-01-12T10:22:51.777Z,31.13
2019-01-12T10:25:21.008Z,31.13
2019-01-12T10:27:50.167Z,34.97
2019-01-12T10:30:26.937Z,31.80
2019-01-12T10:32:56.134Z,29.07
2019-01-12T10:35:25.382Z,32.73
2019-01-12T10:37:54.586Z,31.63
2019-01-12T10:40:23.860Z,29.13
2019-01-12T10:42:53.236Z,30.83
2019-01-12T10:45:24.045Z,28.20
2019-01-12T10:47:54.523Z,30.93
2019-01-12T10:50:34.987Z,32.70
2019-01-12T10:53:04.604Z,34.73
2019-01-12T10:55:33.760Z,29.97
2019-01-12T10:58:05.448Z,29.23
2019-01-12T11:00:38.615Z,34.00
2019-01-12T11:03:07.948Z,32.83
2019-01-12T11:05:37.102Z,33.03
2019-01-12T11:08:07.077Z,34.97
2019-01-12T11:10:36.412Z,33.57
2019-01-12T11:13:06.153Z,36.73
2019-01-12T11:15:35.550Z,31.70
2019-01-12T11:18:05.357Z,28.70
2019-01-12T11:20:34.643Z,31.57
2019-01-12T11:23:03.790Z,35.13
2019-01-12T11:25:32.948Z,33.20
2019-01-12T11:28:02.805Z,34.77
2019-01-12T11:30:32.314Z,29.43
2019-01-12T11:33:01.461Z,33.43
2019-01-12T11:35:30.614Z,31.70
2019-01-12T11:37:59.792Z,31.57
2019-01-12T11:40:28.977Z,31.73
2019-01-12T11:42:58.235Z,30.13
2019-01-12T11:45:27.423Z,31.10
2019-01-12T11:47:56.598Z,30.57
2019-01-12T11:50:25.815Z,31.40
2019-01-12T11:52:55.282Z,27.53
2019-01-12T11:55:24.412Z,27.47
2019-01-12T11:57:53.663Z,25.27
2019-01-12T12:00:28.298Z,27.70
2019-01-12T12:02:57.603Z,21.60
2019-01-12T12:05:26.744Z,21.10
2019-01-12T12:07:56.015Z,21.20
2019-01-12T12:10:25.294Z,19.07
2019-01-12T12:12:54.574Z,20.87
2019-01-12T12:15:24.102Z,19.77
2019-01-12T12:17:53.834Z,18.23
2019-01-12T12:20:27.797Z,21.80
2019-01-12T12:22:56.954Z,19.17
2019-01-12T12:25:26.127Z,18.13
2019-01-12T12:27:55.476Z,16.73
2019-01-12T12:30:26.762Z,16.67
2019-01-12T12:32:56.074Z,17.27
2019-01-12T12:35:25.265Z,16.03
2019-01-12T12:37:54.537Z,13.77
2019-01-12T12:40:24.246Z,15.90
2019-01-12T12:42:53.404Z,15.10
2019-01-12T12:45:25.427Z,12.67
2019-01-12T12:47:54.598Z,14.73
2019-01-12T12:50:23.882Z,10.07
2019-01-12T12:52:53.028Z,10.50
2019-01-12T12:55:22.285Z,9.53
2019-01-12T12:57:51.496Z,7.50
2019-01-12T13:00:24.146Z,9.37
2019-01-12T13:02:53.391Z,8.00
2019-01-12T13:05:22.795Z,7.30
2019-01-12T13:07:52.132Z,10.13
2019-01-12T13:10:25.135Z,7.47
2019-01-12T13:12:54.679Z,7.87
2019-01-12T13:15:23.840Z,9.13
2019-01-12T13:17:53.143Z,8.60
2019-01-12T13:20:23.801Z,8.03
2019-01-12T13:22:52.983Z,8.27
2019-01-12T13:25:22.125Z,8.80
2019-01-12T13:27:51.404Z,7.10
2019-01-12T13:30:25.534Z,7.00
2019-01-12T13:32:54.704Z,7.17
2019-01-12T13:35:24.048Z,8.40
2019-01-12T13:37:53.221Z,6.60
2019-01-12T13:40:24.697Z,9.23
2019-01-12T13:42:53.923Z,7.87
2019-01-12T13:45:23.188Z,7.57
2019-01-12T13:47:52.460Z,7.27
2019-01-12T13:50:23.789Z,9.23
2019-01-12T13:52:52.915Z,9.40
2019-01-12T13:55:22.209Z,13.40
2019-01-12T13:57:51.396Z,10.70
2019-01-12T14:00:32.866Z,8.67
2019-01-12T14:03:02.257Z,7.63
2019-01-12T14:05:31.507Z,9.10
2019-01-12T14:08:02.829Z,13.23
2019-01-12T14:10:32.065Z,9.60
2019-01-12T14:13:02.178Z,10.70
2019-01-12T14:15:31.332Z,8.67
2019-01-12T14:18:00.665Z,7.33
2019-01-12T14:20:32.313Z,10.63
2019-01-12T14:23:02.618Z,10.70
2019-01-12T14:25:31.895Z,12.13
2019-01-12T14:28:01.035Z,11.27
2019-01-12T14:30:30.350Z,9.97
2019-01-12T14:32:59.563Z,9.57
2019-01-12T14:35:28.762Z,7.77
2019-01-12T14:37:57.888Z,13.63
2019-01-12T14:40:27.107Z,10.97
2019-01-12T14:42:56.378Z,8.37
2019-01-12T14:45:27.828Z,8.47
2019-01-12T14:47:57.062Z,9.47
2019-01-12T14:50:26.502Z,5.87
2019-01-12T14:52:55.991Z,8.70
2019-01-12T14:55:25.431Z,8.43
2019-01-12T14:58:01.670Z,6.57
2019-01-12T15:00:27.618Z,8.47
2019-01-12T15:02:56.816Z,11.27
2019-01-12T15:05:28.298Z,5.77
2019-01-12T15:07:57.614Z,9.17
2019-01-12T15:10:26.906Z,6.03
2019-01-12T15:12:56.087Z,7.07
2019-01-12T15:15:25.320Z,10.10
2019-01-12T15:17:54.487Z,7.83
2019-01-12T15:20:25.984Z,11.47
2019-01-12T15:22:55.139Z,7.43
2019-01-12T15:25:24.399Z,9.03
2019-01-12T15:27:53.543Z,10.87
2019-01-12T15:30:25.052Z,11.30
2019-01-12T15:32:54.390Z,9.10
2019-01-12T15:35:24.849Z,9.37
2019-01-12T15:37:54.036Z,8.73
2019-01-12T15:40:24.894Z,15.23
2019-01-12T15:42:54.055Z,16.33
2019-01-12T15:45:24.584Z,11.17
2019-01-12T15:47:53.735Z,11.03
2019-01-12T15:50:26.321Z,16.57
2019-01-12T15:52:55.553Z,12.37
2019-01-12T15:55:24.896Z,13.23
2019-01-12T15:57:54.030Z,20.07
2019-01-12T16:00:28.189Z,15.23
2019-01-12T16:02:57.915Z,16.13
2019-01-12T16:05:27.965Z,26.03
2019-01-12T16:07:57.166Z,8.77
2019-01-12T16:10:26.544Z,15.47
2019-01-12T16:12:55.714Z,11.27
2019-01-12T16:15:26.542Z,17.23
2019-01-12T16:17:56.152Z,15.60
2019-01-12T16:20:37.340Z,14.20
2019-01-12T16:23:06.606Z,13.87
2019-01-12T16:25:35.752Z,16.07
2019-01-12T16:28:04.889Z,21.97
2019-01-12T16:30:34.285Z,16.60
2019-01-12T16:33:03.843Z,20.87
2019-01-12T16:35:33.148Z,13.90
2019-01-12T16:38:03.320Z,17.63
2019-01-12T16:40:32.559Z,11.70
2019-01-12T16:43:02.604Z,16.17
2019-01-12T16:45:31.915Z,16.03
2019-01-12T16:48:02.230Z,14.93
2019-01-12T16:50:31.377Z,12.73
2019-01-12T16:53:00.560Z,15.77
2019-01-12T16:55:29.740Z,14.70
2019-01-12T16:57:58.896Z,12.63
2019-01-12T17:00:30.114Z,12.97
2019-01-12T17:03:00.031Z,17.57
2019-01-12T17:05:29.392Z,16.20
2019-01-12T17:07:58.574Z,11.93
2019-01-12T17:10:28.058Z,16.80
2019-01-12T17:12:57.257Z,22.23
2019-01-12T17:15:26.618Z,19.33
2019-01-12T17:17:55.817Z,19.30
2019-01-12T17:20:27.126Z,12.53
2019-01-12T17:22:58.804Z,17.50
2019-01-12T17:25:28.030Z,15.57
2019-01-12T17:27:57.224Z,21.07
2019-01-12T17:30:26.626Z,17.43
2019-01-12T17:32:55.815Z,15.73
2019-01-12T17:35:25.226Z,22.77
2019-01-12T17:37:54.394Z,18.97
2019-01-12T17:40:25.246Z,13.87
2019-01-12T17:42:54.396Z,12.33
2019-01-12T17:45:25.330Z,19.93
2019-01-12T17:47:54.520Z,16.43
2019-01-12T17:50:25.656Z,17.00
2019-01-12T17:52:55.078Z,19.47
2019-01-12T17:55:26.138Z,13.87
2019-01-12T17:57:55.317Z,22.97
2019-01-12T18:00:51.741Z,16.37
2019-01-12T18:03:20.986Z,18.03
2019-01-12T18:05:50.393Z,21.10
2019-01-12T18:08:19.528Z,17.40
2019-01-12T18:10:48.807Z,21.53
2019-01-12T18:13:20.249Z,17.43
2019-01-12T18:15:49.418Z,18.77
2019-01-12T18:18:18.594Z,15.77
2019-01-12T18:20:47.736Z,20.83
2019-01-12T18:23:16.862Z,25.37
2019-01-12T18:25:46.548Z,16.67
2019-01-12T18:28:15.821Z,11.47
2019-01-12T18:30:44.988Z,16.20
2019-01-12T18:33:14.192Z,11.67
2019-01-12T18:35:43.376Z,10.77
2019-01-12T18:38:12.536Z,12.30
2019-01-12T18:40:41.709Z,15.23
2019-01-12T18:43:10.896Z,13.33
2019-01-12T18:45:40.387Z,12.07
2019-01-12T18:48:09.743Z,20.20
2019-01-12T18:50:38.959Z,16.27
2019-01-12T18:53:08.276Z,17.77
2019-01-12T18:55:37.557Z,25.07
2019-01-12T18:58:06.795Z,18.43
2019-01-12T19:00:36.027Z,21.17
2019-01-12T19:03:05.495Z,19.00
2019-01-12T19:05:34.630Z,19.33
2019-01-12T19:08:04.285Z,20.13
2019-01-12T19:10:33.534Z,21.60
2019-01-12T19:13:03.072Z,16.77
2019-01-12T19:15:32.757Z,16.07
2019-01-12T19:18:01.907Z,21.77
2019-01-12T19:20:31.164Z,18.77
2019-01-12T19:23:00.456Z,19.60
2019-01-12T19:25:29.699Z,18.50
2019-01-12T19:27:58.904Z,17.20
2019-01-12T19:30:28.158Z,20.10
2019-01-12T19:32:57.328Z,17.00
2019-01-12T19:35:26.556Z,14.03
2019-01-12T19:37:55.907Z,18.47
2019-01-12T19:40:26.262Z,18.10
2019-01-12T19:42:55.779Z,17.03
2019-01-12T19:45:24.979Z,25.43
2019-01-12T19:47:54.308Z,22.93
2019-01-12T19:50:27.643Z,29.50
2019-01-12T19:52:57.482Z,17.80
2019-01-12T19:55:26.796Z,20.93
2019-01-12T19:57:56.032Z,28.60
2019-01-12T20:00:33.029Z,19.13
2019-01-12T20:03:03.930Z,25.07
2019-01-12T20:05:33.206Z,19.63
2019-01-12T20:08:02.366Z,18.93
2019-01-12T20:10:31.647Z,22.43
2019-01-12T20:13:02.279Z,18.90
2019-01-12T20:15:31.916Z,24.77
2019-01-12T20:18:02.265Z,24.33
2019-01-12T20:20:34.737Z,20.60
2019-01-12T20:23:04.127Z,21.07
2019-01-12T20:25:33.911Z,20.63
2019-01-12T20:28:14.966Z,22.70
2019-01-12T20:31:27.179Z,26.07
2019-01-12T20:34:08.215Z,22.93
2019-01-12T20:37:06.318Z,18.43
2019-01-12T20:39:57.925Z,22.77
2019-01-12T20:43:08.131Z,25.53
2019-01-12T20:46:04.262Z,24.30
2019-01-12T20:48:59.253Z,24.43
2019-01-12T20:51:59.238Z,26.87
2019-01-12T20:55:17.101Z,20.80
2019-01-12T20:58:33.346Z,20.90
2019-01-12T21:01:40.830Z,19.00
2019-01-12T21:04:55.629Z,18.07
2019-01-12T21:08:20.993Z,22.77
2019-01-12T21:11:43.427Z,25.80
2019-01-12T21:14:43.140Z,15.53
2019-01-12T21:17:14.743Z,25.10
2019-01-12T21:19:48.055Z,26.70
2019-01-12T21:22:15.137Z,22.07
2019-01-12T21:24:44.397Z,13.37
2019-01-12T21:27:13.782Z,22.47
2019-01-12T21:29:43.043Z,26.13
2019-01-12T21:32:12.318Z,17.63
2019-01-12T21:34:41.452Z,21.03
2019-01-12T21:37:11.004Z,18.63
2019-01-12T21:39:40.167Z,20.17
2019-01-12T21:42:09.328Z,20.73
2019-01-12T21:44:38.491Z,23.17
2019-01-12T21:47:07.639Z,22.37
2019-01-12T21:49:36.811Z,22.90
2019-01-12T21:52:05.993Z,18.10
2019-01-12T21:54:35.136Z,24.53
2019-01-12T21:57:04.588Z,21.20
2019-01-12T21:59:33.871Z,28.23
2019-01-12T22:02:03.379Z,25.70
2019-01-12T22:04:32.693Z,25.83
2019-01-12T22:07:04.834Z,19.53
2019-01-12T22:09:34.114Z,23.40
2019-01-12T22:12:03.384Z,25.80
2019-01-12T22:14:32.629Z,19.80
2019-01-12T22:17:01.915Z,21.80
2019-01-12T22:19:31.203Z,19.33
2019-01-12T22:22:00.417Z,27.43
2019-01-12T22:24:29.548Z,18.53
2019-01-12T22:26:58.714Z,22.10
2019-01-12T22:29:27.952Z,22.57
2019-01-12T22:31:57.370Z,25.00
2019-01-12T22:34:26.558Z,28.83
2019-01-12T22:36:55.699Z,22.50
2019-01-12T22:39:24.866Z,15.97
2019-01-12T22:41:54.047Z,18.50
2019-01-12T22:44:23.169Z,23.53
2019-01-12T22:46:52.341Z,21.83
2019-01-12T22:49:21.522Z,18.50
2019-01-12T22:51:51.077Z,21.50
2019-01-12T22:54:20.267Z,15.67
2019-01-12T22:56:49.592Z,15.77
2019-01-12T22:59:18.866Z,18.87
2019-01-12T23:01:54.637Z,23.67
2019-01-12T23:04:25.756Z,20.87
2019-01-12T23:06:55.022Z,20.57
2019-01-12T23:09:24.673Z,14.23
2019-01-12T23:11:53.863Z,21.57
2019-01-12T23:14:23.013Z,17.43
2019-01-12T23:16:52.164Z,23.53
2019-01-12T23:19:21.386Z,14.93
2019-01-12T23:21:50.627Z,20.27
2019-01-12T23:24:19.786Z,21.53
2019-01-12T23:26:48.930Z,16.03
2019-01-12T23:29:18.065Z,19.73
2019-01-12T23:31:47.236Z,20.80
2019-01-12T23:34:16.512Z,16.23
2019-01-12T23:36:45.638Z,22.10
2019-01-12T23:39:14.799Z,16.77
2019-01-12T23:41:43.962Z,16.50
2019-01-12T23:44:15.044Z,14.13
2019-01-12T23:46:44.039Z,20.83
2019-01-12T23:49:13.193Z,17.20
2019-01-12T23:51:42.421Z,14.97
2019-01-12T23:54:11.598Z,23.17
2019-01-12T23:56:40.744Z,19.87
2019-01-12T23:59:09.888Z,17.20
